Disclaimer

Please do not use the information listed here in-flight or in-navigation, as they are not provided to us by the airports but are provided by volunteers, so they might be outdated.

Search


Regions


Airport information page

Radio informations:
PMSV METRO - 344.6 MHz
TORONTO CNTR - 121.225 MHz

Airport informations:
Latitude: 46° 21' 49.00" N
Longitude: 079° 25' 22.00" W
Elevation: 1215 feet - 370 meters
Operating hours: 24 hour operations
Operating agency: Civil government, landing fees and diplomatic clearance may be required
Timezone: UTC-5(-4DT) - Second Sunday in March at 0200 to first Sunday in November at 0200 local time (Exception Arizona and that portion of Indiana in the Eastern Time Zone)
Fuel: Jet A1, without icing nhibitor.

100/130 MIL Spec, low lead, aviation gasoline (BLUE)

Runway information:
08/26 - 10000 x 200 feet< - >3048 x 61 meters
13/31 - 2500 x 75 feet< - >762 x 23 meters
18/36 - 4474 x 150 feet< - >1364 x 46 meters

Recent METARs:
CYYB 181727Z 17008KT 2SM -SN BKN025 OVC032 M07/M07 A3012 RMK SN3SC4SC1 SLP231
CYYB 181727Z 17008KT 2SM -SN BKN025 OVC032 M07/M07 A3012 RMK SN3SC4SC1 SLP231
CYYB 181800Z 15006KT 100V190 3SM -SN SCT016 OVC025 M07/M07 A3010 RMK SC3SC5 SLP222

Airport on the map: